createdAt,value
2022-08-22T00:00:14.164Z,2.15
2022-08-22T00:02:57.967Z,2.13
2022-08-22T00:03:06.868Z,1.92
2022-08-22T00:03:10.965Z,1.80
2022-08-22T00:03:17.341Z,2.03
2022-08-22T00:05:51.255Z,2.25
2022-08-22T00:08:28.083Z,2.00
2022-08-22T00:11:02.731Z,2.28
2022-08-22T00:13:38.443Z,1.65
2022-08-22T00:16:14.833Z,1.58
2022-08-22T00:18:53.145Z,1.88
2022-08-22T00:21:27.665Z,1.63
2022-08-22T00:24:15.885Z,1.88
2022-08-22T00:26:50.811Z,1.70
2022-08-22T00:29:23.859Z,1.85
2022-08-22T00:32:08.823Z,1.98
2022-08-22T00:34:45.549Z,2.15
2022-08-22T00:37:24.747Z,1.95
2022-08-22T00:40:04.269Z,2.33
2022-08-22T00:43:01.936Z,1.80
2022-08-22T00:45:45.726Z,1.95
2022-08-22T00:48:29.103Z,1.88
2022-08-22T00:51:31.754Z,2.35
2022-08-22T00:54:16.840Z,1.88
2022-08-22T00:57:07.831Z,2.25
2022-08-22T01:00:05.795Z,1.77
2022-08-22T01:02:51.921Z,2.25
2022-08-22T01:05:44.352Z,1.67
2022-08-22T01:08:34.034Z,1.88
2022-08-22T01:11:17.803Z,1.58
2022-08-22T01:14:03.275Z,2.42
2022-08-22T01:16:54.894Z,2.17
2022-08-22T01:19:53.073Z,1.60
2022-08-22T01:23:11.450Z,1.90
2022-08-22T01:26:21.612Z,2.28
2022-08-22T01:29:17.750Z,2.03
2022-08-22T01:32:18.644Z,1.70
2022-08-22T01:35:16.776Z,2.03
2022-08-22T01:38:20.056Z,2.05
2022-08-22T01:41:29.311Z,1.83
2022-08-22T01:44:09.721Z,2.03
2022-08-22T01:46:48.555Z,2.10
2022-08-22T01:49:21.792Z,2.22
2022-08-22T01:51:55.915Z,2.38
2022-08-22T01:54:36.000Z,2.42
2022-08-22T01:57:09.046Z,2.28
2022-08-22T01:59:42.410Z,2.20
2022-08-22T02:02:25.615Z,2.42
2022-08-22T02:05:01.141Z,2.78
2022-08-22T02:07:36.886Z,1.80
2022-08-22T02:10:13.921Z,1.90
2022-08-22T02:12:48.005Z,1.98
2022-08-22T02:15:26.078Z,2.15
2022-08-22T02:18:13.444Z,2.30
2022-08-22T02:20:57.667Z,2.65
2022-08-22T02:23:34.684Z,2.53
2022-08-22T02:26:09.478Z,2.10
2022-08-22T02:28:57.238Z,2.08
2022-08-22T02:31:37.917Z,2.35
2022-08-22T02:34:24.363Z,2.20
2022-08-22T02:36:58.059Z,2.45
2022-08-22T02:39:36.963Z,2.20
2022-08-22T02:42:18.308Z,2.72
2022-08-22T02:44:56.039Z,3.05
2022-08-22T02:47:35.930Z,2.53
2022-08-22T02:50:14.515Z,3.47
2022-08-22T02:52:57.370Z,2.35
2022-08-22T02:55:39.329Z,2.80
2022-08-22T02:58:27.857Z,2.80
2022-08-22T03:01:24.311Z,2.78
2022-08-22T03:03:53.794Z,2.53
2022-08-22T03:06:39.963Z,2.50
2022-08-22T03:09:25.102Z,2.60
2022-08-22T03:12:06.435Z,2.42
2022-08-22T03:14:41.270Z,2.20
2022-08-22T03:17:14.908Z,3.10
2022-08-22T03:22:23.564Z,2.50
2022-08-22T03:24:57.988Z,1.90
2022-08-22T03:27:32.410Z,2.40
2022-08-22T03:30:07.347Z,2.40
2022-08-22T03:32:53.907Z,2.22
2022-08-22T03:35:32.496Z,2.05
2022-08-22T03:38:18.295Z,2.03
2022-08-22T03:41:05.623Z,2.38
2022-08-22T03:43:52.900Z,2.80
2022-08-22T03:46:46.956Z,3.42
2022-08-22T03:50:05.568Z,2.22
2022-08-22T03:53:18.766Z,2.40
2022-08-22T03:56:25.974Z,2.13
2022-08-22T03:59:15.378Z,2.63
2022-08-22T04:02:35.837Z,2.45
2022-08-22T04:05:56.372Z,2.60
2022-08-22T04:09:05.127Z,4.72
2022-08-22T04:12:09.061Z,2.65
2022-08-22T04:15:08.513Z,2.58
2022-08-22T04:18:18.172Z,2.53
2022-08-22T04:21:13.929Z,2.47
2022-08-22T04:24:01.408Z,2.03
2022-08-22T04:26:38.250Z,2.97
2022-08-22T04:29:19.882Z,2.85
2022-08-22T04:31:58.448Z,2.95
2022-08-22T04:34:33.499Z,2.50
2022-08-22T04:37:10.117Z,2.55
2022-08-22T04:39:48.292Z,2.70
2022-08-22T04:42:32.721Z,2.28
2022-08-22T04:45:07.110Z,2.30
2022-08-22T04:47:41.661Z,2.38
2022-08-22T04:50:17.188Z,2.45
2022-08-22T04:52:57.686Z,2.45
2022-08-22T04:55:33.845Z,2.67
2022-08-22T04:58:12.151Z,2.47
2022-08-22T05:00:46.190Z,2.83
2022-08-22T05:03:21.332Z,3.22
2022-08-22T05:05:50.940Z,2.78
2022-08-22T05:08:25.236Z,3.92
2022-08-22T05:10:54.207Z,2.88
2022-08-22T05:13:28.931Z,3.28
2022-08-22T05:16:03.231Z,2.83
2022-08-22T05:18:37.498Z,2.80
2022-08-22T05:21:09.068Z,3.35
2022-08-22T05:23:48.299Z,2.80
2022-08-22T05:26:18.356Z,2.97
2022-08-22T05:28:52.884Z,2.72
2022-08-22T05:31:27.553Z,2.65
2022-08-22T05:34:02.013Z,2.88
2022-08-22T05:36:34.194Z,3.15
2022-08-22T05:39:06.194Z,3.35
2022-08-22T05:41:37.802Z,2.80
2022-08-22T05:44:09.159Z,2.38
2022-08-22T05:46:42.492Z,2.88
2022-08-22T05:49:19.234Z,2.88
2022-08-22T05:51:53.721Z,2.70
2022-08-22T05:54:33.531Z,2.80
2022-08-22T05:57:11.402Z,2.85
2022-08-22T05:59:44.195Z,2.60
2022-08-22T06:02:19.983Z,3.17
2022-08-22T06:04:52.091Z,3.00
2022-08-22T06:07:25.353Z,2.67
2022-08-22T06:10:08.534Z,2.65
2022-08-22T06:12:43.167Z,3.07
2022-08-22T06:15:20.808Z,2.95
2022-08-22T06:17:52.199Z,2.50
2022-08-22T06:20:28.793Z,2.45
2022-08-22T06:23:01.638Z,2.47
2022-08-22T06:25:33.614Z,2.20
2022-08-22T06:28:08.004Z,3.28
2022-08-22T06:30:38.115Z,2.70
2022-08-22T06:33:12.336Z,3.38
2022-08-22T06:36:02.954Z,3.60
2022-08-22T06:38:33.625Z,2.97
2022-08-22T06:41:04.302Z,3.40
2022-08-22T06:43:42.866Z,3.42
2022-08-22T06:46:14.497Z,3.15
2022-08-22T06:48:42.786Z,2.63
2022-08-22T06:51:15.331Z,3.65
2022-08-22T06:53:48.103Z,3.90
2022-08-22T06:56:22.435Z,4.15
2022-08-22T06:58:53.392Z,3.58
2022-08-22T07:01:23.503Z,2.42
2022-08-22T07:03:54.607Z,2.72
2022-08-22T07:06:31.383Z,2.83
2022-08-22T07:08:59.582Z,3.40
2022-08-22T07:11:38.303Z,2.95
2022-08-22T07:14:08.604Z,3.07
2022-08-22T07:16:42.687Z,3.53
2022-08-22T07:19:14.451Z,2.78
2022-08-22T07:21:46.272Z,3.00
2022-08-22T07:24:17.173Z,3.00
2022-08-22T07:27:04.760Z,3.65
2022-08-22T07:29:44.276Z,2.95
2022-08-22T07:32:18.000Z,3.05
2022-08-22T07:35:10.393Z,3.22
2022-08-22T07:37:51.324Z,3.03
2022-08-22T07:40:25.717Z,3.03
2022-08-22T07:43:00.399Z,3.42
2022-08-22T07:45:36.216Z,3.40
2022-08-22T07:48:19.744Z,3.67
2022-08-22T07:51:01.692Z,5.25
2022-08-22T07:53:40.218Z,5.93
2022-08-22T07:56:17.092Z,5.15
2022-08-22T07:58:47.449Z,5.38
2022-08-22T08:01:21.034Z,4.72
2022-08-22T08:06:23.326Z,4.80
2022-08-22T08:08:54.162Z,4.32
2022-08-22T08:11:24.979Z,5.82
2022-08-22T08:13:57.971Z,5.93
2022-08-22T08:16:29.851Z,5.82
2022-08-22T08:19:01.625Z,5.78
2022-08-22T08:21:33.020Z,5.45
2022-08-22T08:24:06.960Z,4.82
2022-08-22T08:26:40.028Z,5.30
2022-08-22T08:29:08.368Z,6.07
2022-08-22T08:31:44.887Z,5.80
2022-08-22T08:34:20.284Z,5.03
2022-08-22T08:36:53.961Z,5.53
2022-08-22T08:39:28.633Z,4.55
2022-08-22T08:43:00.816Z,4.22
2022-08-22T08:45:44.648Z,4.78
2022-08-22T08:51:09.920Z,3.92
2022-08-22T08:54:10.480Z,3.83
2022-08-22T08:56:54.312Z,4.28
2022-08-22T08:59:44.343Z,3.50
2022-08-22T09:02:36.910Z,4.05
2022-08-22T09:05:42.243Z,3.85
2022-08-22T09:08:55.529Z,3.35
2022-08-22T09:12:01.656Z,3.15
2022-08-22T09:14:52.407Z,3.03
2022-08-22T09:17:58.872Z,3.40
2022-08-22T09:20:49.044Z,3.45
2022-08-22T09:23:43.311Z,3.40
2022-08-22T09:26:17.074Z,3.83
2022-08-22T09:28:54.664Z,3.22
2022-08-22T09:31:48.062Z,3.20
2022-08-22T09:34:27.104Z,3.20
2022-08-22T09:37:14.404Z,3.40
2022-08-22T09:39:55.425Z,3.22
2022-08-22T09:42:33.898Z,3.87
2022-08-22T09:45:34.293Z,4.00
2022-08-22T09:48:11.226Z,4.15
2022-08-22T09:50:52.694Z,3.75
2022-08-22T09:53:43.749Z,3.75
2022-08-22T09:56:18.855Z,2.92
2022-08-22T09:59:01.636Z,3.38
2022-08-22T10:01:42.345Z,3.33
2022-08-22T10:04:42.686Z,2.20
2022-08-22T10:07:36.012Z,3.42
2022-08-22T10:10:17.196Z,3.42
2022-08-22T10:12:56.621Z,3.53
2022-08-22T10:15:36.195Z,3.00
2022-08-22T10:18:23.616Z,3.13
2022-08-22T10:21:10.508Z,3.53
2022-08-22T10:23:45.926Z,3.33
2022-08-22T10:26:34.190Z,3.95
2022-08-22T10:29:30.304Z,3.20
2022-08-22T10:32:13.898Z,3.35
2022-08-22T10:34:49.090Z,3.53
2022-08-22T10:37:37.180Z,3.20
2022-08-22T10:40:21.361Z,3.35
2022-08-22T10:42:53.791Z,4.03
2022-08-22T10:45:36.564Z,5.17
2022-08-22T10:48:33.882Z,4.43
2022-08-22T10:51:16.924Z,3.25
2022-08-22T10:54:12.601Z,3.90
2022-08-22T10:56:53.660Z,3.88
2022-08-22T10:59:34.094Z,2.97
2022-08-22T11:02:23.714Z,3.60
2022-08-22T11:05:17.166Z,3.20
2022-08-22T11:07:50.438Z,3.22
2022-08-22T11:10:28.902Z,3.63
2022-08-22T11:13:13.692Z,3.13
2022-08-22T11:15:59.402Z,3.25
2022-08-22T11:18:37.899Z,3.53
2022-08-22T11:21:11.064Z,2.42
2022-08-22T11:23:48.302Z,2.95
2022-08-22T11:26:46.667Z,3.65
2022-08-22T11:29:27.758Z,3.13
2022-08-22T11:32:07.710Z,3.38
2022-08-22T11:34:51.923Z,2.58
2022-08-22T11:37:54.818Z,3.00
2022-08-22T11:40:38.870Z,2.42
2022-08-22T11:43:21.860Z,3.60
2022-08-22T11:45:55.036Z,3.65
2022-08-22T11:48:29.887Z,3.50
2022-08-22T11:51:15.873Z,2.38
2022-08-22T11:53:50.793Z,3.28
2022-08-22T11:56:27.625Z,2.65
2022-08-22T11:59:02.636Z,3.38
2022-08-22T12:01:39.391Z,3.25
2022-08-22T12:04:19.370Z,2.75
2022-08-22T12:07:03.778Z,2.80
2022-08-22T12:09:45.204Z,2.58
2022-08-22T12:12:43.829Z,3.03
2022-08-22T12:15:21.194Z,2.55
2022-08-22T12:18:30.122Z,2.97
2022-08-22T12:21:15.294Z,2.60
2022-08-22T12:24:25.404Z,3.08
2022-08-22T12:27:18.323Z,2.05
2022-08-22T12:30:13.674Z,3.00
2022-08-22T12:33:13.153Z,2.90
2022-08-22T12:35:52.945Z,2.85
2022-08-22T12:38:44.332Z,2.72
2022-08-22T12:41:34.989Z,3.05
2022-08-22T12:44:24.490Z,2.80
2022-08-22T12:47:10.242Z,3.05
2022-08-22T12:49:52.827Z,3.60
2022-08-22T12:52:38.569Z,2.53
2022-08-22T12:55:21.939Z,2.75
2022-08-22T12:58:02.711Z,2.50
2022-08-22T13:00:35.719Z,2.40
2022-08-22T13:03:09.654Z,2.35
2022-08-22T13:05:40.799Z,2.13
2022-08-22T13:08:17.362Z,3.42
2022-08-22T13:10:48.191Z,2.40
2022-08-22T13:13:31.735Z,2.30
2022-08-22T13:16:08.626Z,2.80
2022-08-22T13:18:53.398Z,2.50
2022-08-22T13:21:32.128Z,2.83
2022-08-22T13:24:10.843Z,2.35
2022-08-22T13:26:48.966Z,2.60
2022-08-22T13:29:26.150Z,2.28
2022-08-22T13:32:00.634Z,2.47
2022-08-22T13:34:39.844Z,2.28
2022-08-22T13:37:14.948Z,2.40
2022-08-22T13:39:58.906Z,2.60
2022-08-22T13:42:31.315Z,2.95
2022-08-22T13:45:05.613Z,2.75
2022-08-22T13:48:08.657Z,2.72
2022-08-22T13:50:58.086Z,3.10
2022-08-22T13:53:50.037Z,2.30
2022-08-22T13:56:43.503Z,2.20
2022-08-22T14:00:48.772Z,2.50
2022-08-22T14:07:34.085Z,2.75
2022-08-22T14:10:06.202Z,2.47
2022-08-22T14:13:07.467Z,2.60
2022-08-22T14:15:45.560Z,2.80
2022-08-22T14:18:18.644Z,2.42
2022-08-22T14:23:39.599Z,2.60
2022-08-22T14:26:08.008Z,2.88
2022-08-22T14:31:13.636Z,2.72
2022-08-22T14:33:48.360Z,3.13
2022-08-22T14:36:23.305Z,2.13
2022-08-22T14:39:18.694Z,2.35
2022-08-22T14:41:56.528Z,2.65
2022-08-22T14:48:30.267Z,2.75
2022-08-22T14:54:39.011Z,2.55
2022-08-22T14:58:47.524Z,2.05
2022-08-22T15:01:29.718Z,2.25
2022-08-22T15:13:11.492Z,2.58
2022-08-22T15:22:13.478Z,2.33
2022-08-22T15:24:46.872Z,2.67
2022-08-22T15:30:44.505Z,2.72
2022-08-22T15:33:22.828Z,2.75
2022-08-22T15:35:53.801Z,2.85
2022-08-22T15:38:29.274Z,2.50
2022-08-22T15:41:18.269Z,2.38
2022-08-22T15:47:24.199Z,2.55
2022-08-22T15:50:15.328Z,2.45
2022-08-22T15:53:13.507Z,3.17
2022-08-22T15:56:22.441Z,2.45
2022-08-22T15:58:55.477Z,2.40
2022-08-22T16:01:26.796Z,2.83
2022-08-22T16:04:01.204Z,2.80
2022-08-22T16:06:45.291Z,2.65
2022-08-22T16:09:34.744Z,2.13
2022-08-22T16:12:07.066Z,2.42
2022-08-22T16:15:22.747Z,2.40
2022-08-22T16:17:53.276Z,2.72
2022-08-22T16:20:50.903Z,2.85
2022-08-22T16:24:04.127Z,2.60
2022-08-22T16:26:43.061Z,2.57
2022-08-22T16:29:35.546Z,2.42
2022-08-22T16:32:11.984Z,2.70
2022-08-22T16:34:43.960Z,2.47
2022-08-22T16:37:35.787Z,2.55
2022-08-22T16:40:17.627Z,2.30
2022-08-22T16:42:53.161Z,2.45
2022-08-22T16:45:34.982Z,2.20
2022-08-22T16:48:33.723Z,1.88
2022-08-22T16:51:21.285Z,2.42
2022-08-22T16:54:11.834Z,2.35
2022-08-22T16:57:04.137Z,2.35
2022-08-22T17:00:04.761Z,2.50
2022-08-22T17:02:53.490Z,2.47
2022-08-22T17:05:30.838Z,2.00
2022-08-22T17:08:14.537Z,2.45
2022-08-22T17:10:59.753Z,2.80
2022-08-22T17:13:50.407Z,3.22
2022-08-22T17:16:42.668Z,2.80
2022-08-22T17:19:25.623Z,2.47
2022-08-22T17:21:58.969Z,2.80
2022-08-22T17:24:35.396Z,2.40
2022-08-22T17:27:09.131Z,4.22
2022-08-22T17:29:47.343Z,3.13
2022-08-22T17:32:28.034Z,3.50
2022-08-22T17:35:16.032Z,3.08
2022-08-22T17:38:02.327Z,2.05
2022-08-22T17:40:45.787Z,2.42
2022-08-22T17:46:06.508Z,3.30
2022-08-22T17:48:51.555Z,3.13
2022-08-22T17:51:28.745Z,3.42
2022-08-22T17:54:02.825Z,2.55
2022-08-22T17:56:46.399Z,2.92
2022-08-22T17:59:22.472Z,2.47
2022-08-22T18:01:55.114Z,3.15
2022-08-22T18:04:32.358Z,2.80
2022-08-22T18:07:20.644Z,3.38
2022-08-22T18:09:53.722Z,3.65
2022-08-22T18:12:31.201Z,4.05
2022-08-22T18:15:08.349Z,6.10
2022-08-22T18:17:41.372Z,4.30
2022-08-22T18:20:16.328Z,5.75
2022-08-22T18:22:49.717Z,3.83
2022-08-22T18:25:41.903Z,2.78
2022-08-22T18:28:22.253Z,2.65
2022-08-22T18:31:02.178Z,3.28
2022-08-22T18:33:35.626Z,3.20
2022-08-22T18:36:14.286Z,3.78
2022-08-22T18:38:55.217Z,2.50
2022-08-22T18:41:30.363Z,2.78
2022-08-22T18:44:01.613Z,2.88
2022-08-22T18:46:42.543Z,2.92
2022-08-22T18:49:28.370Z,2.53
2022-08-22T18:52:17.173Z,2.80
2022-08-22T18:55:08.893Z,2.97
2022-08-22T18:57:55.161Z,3.67
2022-08-22T19:00:37.667Z,2.60
2022-08-22T19:03:36.269Z,2.92
2022-08-22T19:06:38.099Z,2.70
2022-08-22T19:09:49.988Z,2.55
2022-08-22T19:12:36.456Z,2.90
2022-08-22T19:15:20.480Z,2.80
2022-08-22T19:18:08.461Z,3.00
2022-08-22T19:20:56.360Z,2.90
2022-08-22T19:23:47.787Z,3.50
2022-08-22T19:26:42.690Z,2.55
2022-08-22T19:29:55.621Z,2.50
2022-08-22T19:33:05.380Z,3.00
2022-08-22T19:35:47.311Z,2.88
2022-08-22T19:38:53.781Z,2.80
2022-08-22T19:41:52.608Z,3.00
2022-08-22T19:44:42.647Z,2.65
2022-08-22T19:47:34.895Z,2.70
2022-08-22T19:50:08.953Z,2.97
2022-08-22T19:52:59.062Z,2.47
2022-08-22T19:55:42.104Z,3.08
2022-08-22T19:58:31.860Z,2.95
2022-08-22T20:01:07.623Z,2.85
2022-08-22T20:03:46.259Z,2.90
2022-08-22T20:06:43.097Z,3.45
2022-08-22T20:09:35.459Z,2.90
2022-08-22T20:12:16.307Z,3.00
2022-08-22T20:14:48.549Z,2.95
2022-08-22T20:17:41.534Z,3.35
2022-08-22T20:20:19.362Z,3.08
2022-08-22T20:22:56.755Z,3.45
2022-08-22T20:25:42.861Z,3.33
2022-08-22T20:28:31.515Z,2.70
2022-08-22T20:31:03.981Z,2.67
2022-08-22T20:33:35.692Z,2.88
2022-08-22T20:36:06.635Z,2.95
2022-08-22T20:38:56.046Z,2.63
2022-08-22T20:41:28.206Z,2.78
2022-08-22T20:44:02.023Z,2.47
2022-08-22T20:46:46.616Z,2.95
2022-08-22T20:49:19.760Z,3.63
2022-08-22T20:51:53.699Z,2.85
2022-08-22T20:54:25.857Z,3.00
2022-08-22T20:56:57.149Z,3.40
2022-08-22T20:59:37.222Z,2.78
2022-08-22T21:02:15.339Z,3.42
2022-08-22T21:04:52.903Z,2.65
2022-08-22T21:07:26.730Z,3.10
2022-08-22T21:12:40.948Z,3.15
2022-08-22T21:15:10.230Z,2.83
2022-08-22T21:17:39.738Z,2.80
2022-08-22T21:20:21.258Z,2.75
2022-08-22T21:22:50.154Z,2.65
2022-08-22T21:25:18.435Z,3.10
2022-08-22T21:27:52.402Z,2.70
2022-08-22T21:30:24.975Z,2.92
2022-08-22T21:32:56.359Z,2.70
2022-08-22T21:35:30.355Z,2.20
2022-08-22T21:37:59.148Z,2.38
2022-08-22T21:40:33.488Z,2.80
2022-08-22T21:43:07.610Z,2.42
2022-08-22T21:45:42.856Z,3.08
2022-08-22T21:48:36.242Z,3.80
2022-08-22T21:51:32.965Z,3.35
2022-08-22T21:54:33.655Z,2.97
2022-08-22T21:57:19.861Z,3.33
2022-08-22T21:59:51.607Z,3.03
2022-08-22T22:02:31.149Z,3.55
2022-08-22T22:05:03.579Z,3.37
2022-08-22T22:07:32.059Z,3.90
2022-08-22T22:10:00.329Z,4.00
2022-08-22T22:12:28.367Z,3.97
2022-08-22T22:14:56.415Z,2.50
2022-08-22T22:17:24.509Z,3.10
2022-08-22T22:19:52.827Z,3.17
2022-08-22T22:22:22.664Z,2.95
2022-08-22T22:24:50.711Z,3.15
2022-08-22T22:27:18.846Z,3.33
2022-08-22T22:29:46.890Z,3.10
2022-08-22T22:32:15.287Z,3.25
2022-08-22T22:34:43.356Z,3.40
2022-08-22T22:37:14.916Z,2.83
2022-08-22T22:39:44.828Z,3.13
2022-08-22T22:42:13.517Z,3.67
2022-08-22T22:44:41.801Z,3.10
2022-08-22T22:47:15.948Z,2.75
2022-08-22T22:49:45.641Z,3.10
2022-08-22T22:52:15.226Z,2.70
2022-08-22T22:54:47.487Z,3.25
2022-08-22T22:57:25.406Z,3.15
2022-08-22T22:59:54.492Z,3.22
2022-08-22T23:02:24.784Z,3.13
2022-08-22T23:04:56.402Z,3.40
2022-08-22T23:07:25.828Z,2.95
2022-08-22T23:09:57.087Z,3.50
2022-08-22T23:12:28.073Z,3.00
2022-08-22T23:14:56.085Z,3.08
2022-08-22T23:17:24.455Z,2.97
2022-08-22T23:19:52.668Z,3.25
2022-08-22T23:22:21.454Z,3.47
2022-08-22T23:24:51.854Z,3.53
2022-08-22T23:27:21.387Z,3.13
2022-08-22T23:29:50.930Z,3.92
2022-08-22T23:32:19.503Z,3.13
2022-08-22T23:34:49.460Z,3.00
2022-08-22T23:37:19.803Z,3.20
2022-08-22T23:39:48.384Z,3.38
2022-08-22T23:42:18.145Z,2.92
2022-08-22T23:44:47.644Z,2.95
2022-08-22T23:47:16.630Z,3.03
2022-08-22T23:49:45.758Z,3.17
2022-08-22T23:52:14.271Z,3.15
2022-08-22T23:54:42.768Z,3.22
2022-08-22T23:57:11.663Z,3.72
2022-08-22T23:59:48.418Z,3.47
